Strona główna
METAR-TAF:

METAR-TAF

Lotnisko :

Julian Carroll Airport

Jackson, Kentucky, Stany Zjednoczone

Szerokość geograficzna: 37-35-29N, Długość geograficzna: 083-18-52W, wysokość: 421 m

Aktualna obserwacja pogody

Raport powstał 14 godziny i 33 minut temu, godzina 22:53 UTC
Cisza
Temperatura 22°C
Wilgotność 65%
Ciśnienie 1022 hPa
Widzialność: 16.1 km
bezchmurnie

METAR: KJKL 202253Z AUTO 00000KT 10SM CLR 22/15 A3018 RMK AO2 SLP209 T02170150

czas: 09:26 (13:26 UTC)

Prognoza

Raport powstał 2 godziny i 5 minut temu, godzina 11:21 UTC
Prognoza ważna od 21 godzina 12 UTC do 22 godzina 12 UTC
Wiatr kt od północ
Widzialność: 10 km
bezchmurnie

TAF: KJKL 211121Z 2112/2212 00000KT P6SM SKC AMD NOT SKED

Obserwacja i prognoza pogody dla ponad 4000 lotnisk (raport METAR i TAF).

Dostępne stacje oznaczono żółtymi i czerwonymi punktami na mapie.

Najedź kursorem aby zobaczyć nazwę stacji.

Kliknij aby zobaczyć obserwacje i prognozy pogody.

Aby zmienić mapę: kliknij na zielony przycisk z czarnym krzyżykiem, aby powiększyć; na zielony przycisk z myślnikiem, aby pomniejszyć; na zielone strzałki, aby przejść do map sąsiednich.


METAR-TAF: